createdAt,value
2023-05-08T00:00:50.746Z,13.68
2023-05-08T00:03:17.339Z,13.72
2023-05-08T00:05:43.911Z,13.68
2023-05-08T00:08:10.470Z,13.66
2023-05-08T00:10:37.087Z,13.62
2023-05-08T00:13:03.854Z,13.55
2023-05-08T00:15:30.414Z,13.51
2023-05-08T00:17:57.082Z,13.49
2023-05-08T00:20:23.675Z,13.48
2023-05-08T00:22:50.199Z,13.46
2023-05-08T00:25:16.751Z,13.39
2023-05-08T00:27:43.232Z,13.37
2023-05-08T00:30:10.166Z,13.31
2023-05-08T00:32:36.843Z,13.32
2023-05-08T00:35:03.566Z,13.24
2023-05-08T00:37:30.096Z,13.25
2023-05-08T00:39:56.596Z,13.15
2023-05-08T00:42:23.141Z,13.14
2023-05-08T00:44:49.609Z,13.09
2023-05-08T00:47:16.349Z,13.07
2023-05-08T00:49:43.012Z,13.07
2023-05-08T00:52:10.209Z,13.03
2023-05-08T00:54:38.116Z,12.96
2023-05-08T00:57:07.309Z,12.96
2023-05-08T00:59:35.572Z,12.89
2023-05-08T01:02:02.678Z,12.90
2023-05-08T01:04:30.521Z,12.86
2023-05-08T01:06:57.350Z,12.82
2023-05-08T01:09:23.823Z,12.76
2023-05-08T01:12:06.433Z,12.79
2023-05-08T01:14:56.999Z,12.76
2023-05-08T01:17:54.700Z,12.70
2023-05-08T01:21:06.689Z,12.68
2023-05-08T01:23:57.745Z,12.66
2023-05-08T01:27:01.125Z,12.60
2023-05-08T01:29:44.978Z,12.51
2023-05-08T01:32:13.135Z,12.46
2023-05-08T01:35:04.767Z,12.41
2023-05-08T01:37:50.144Z,12.38
2023-05-08T01:40:34.184Z,12.31
2023-05-08T01:43:29.005Z,12.25
2023-05-08T01:45:57.950Z,12.19
2023-05-08T01:48:34.856Z,12.20
2023-05-08T01:51:08.547Z,12.16
2023-05-08T01:53:40.997Z,12.10
2023-05-08T01:56:14.736Z,12.08
2023-05-08T01:58:42.711Z,12.04
2023-05-08T02:01:12.595Z,11.98
2023-05-08T02:03:44.302Z,11.97
2023-05-08T02:06:13.609Z,11.96
2023-05-08T02:08:41.336Z,11.87
2023-05-08T02:11:09.122Z,11.83
2023-05-08T02:13:37.053Z,11.88
2023-05-08T02:16:08.388Z,11.87
2023-05-08T02:18:38.785Z,11.86
2023-05-08T02:21:06.735Z,11.83
2023-05-08T02:23:34.785Z,11.76
2023-05-08T02:26:03.974Z,11.77
2023-05-08T02:28:33.061Z,11.70
2023-05-08T02:31:01.246Z,11.64
2023-05-08T02:33:30.312Z,11.59
2023-05-08T02:35:58.895Z,11.65
2023-05-08T02:38:27.047Z,11.65
2023-05-08T02:41:00.464Z,11.59
2023-05-08T02:43:27.732Z,11.61
2023-05-08T02:46:16.992Z,11.55
2023-05-08T02:48:52.927Z,11.54
2023-05-08T02:51:25.593Z,11.49
2023-05-08T02:53:58.437Z,11.52
2023-05-08T02:56:38.064Z,11.51
2023-05-08T02:59:43.792Z,11.50
2023-05-08T03:02:22.842Z,11.49
2023-05-08T03:05:03.624Z,11.51
2023-05-08T03:07:32.736Z,11.50
2023-05-08T03:10:03.739Z,11.49
2023-05-08T03:12:33.369Z,11.46
2023-05-08T03:15:03.057Z,11.42
2023-05-08T03:17:32.898Z,11.41
2023-05-08T03:20:04.473Z,11.34
2023-05-08T03:22:34.963Z,11.35
2023-05-08T03:25:04.648Z,11.32
2023-05-08T03:27:33.269Z,11.28
2023-05-08T03:30:02.365Z,11.31
2023-05-08T03:32:31.768Z,11.33
2023-05-08T03:34:59.665Z,11.30
2023-05-08T03:37:27.934Z,11.25
2023-05-08T03:39:55.958Z,11.28
2023-05-08T03:42:24.260Z,11.26
2023-05-08T03:44:52.434Z,11.25
2023-05-08T03:47:22.532Z,11.23
2023-05-08T03:49:50.464Z,11.15
2023-05-08T03:52:17.772Z,11.16
2023-05-08T03:54:44.980Z,11.16
2023-05-08T03:57:12.461Z,11.18
2023-05-08T04:00:00.264Z,11.18
2023-05-08T04:02:42.308Z,11.15
2023-05-08T04:05:32.134Z,11.16
2023-05-08T04:08:16.163Z,11.15
2023-05-08T04:10:49.406Z,11.14
2023-05-08T04:13:22.677Z,11.11
2023-05-08T04:15:58.670Z,11.13
2023-05-08T04:18:29.978Z,11.13
2023-05-08T04:21:01.667Z,11.10
2023-05-08T04:23:30.013Z,11.12
2023-05-08T04:25:59.638Z,11.12
2023-05-08T04:28:26.286Z,11.10
2023-05-08T04:30:53.587Z,11.09
2023-05-08T04:33:20.566Z,11.09
2023-05-08T04:35:48.428Z,11.09
2023-05-08T04:38:15.421Z,11.10
2023-05-08T04:40:42.493Z,11.08
2023-05-08T04:43:10.837Z,11.09
2023-05-08T04:45:38.291Z,11.13
2023-05-08T04:48:05.718Z,11.15
2023-05-08T04:50:32.245Z,11.15
2023-05-08T04:52:59.073Z,11.17
2023-05-08T04:55:26.108Z,11.19
2023-05-08T04:57:52.983Z,11.24
2023-05-08T05:00:20.050Z,11.26
2023-05-08T05:02:47.080Z,11.28
2023-05-08T05:05:14.043Z,11.32
2023-05-08T05:07:41.233Z,11.38
2023-05-08T05:10:08.165Z,11.38
2023-05-08T05:12:35.388Z,11.39
2023-05-08T05:15:02.468Z,11.47
2023-05-08T05:17:32.618Z,11.51
2023-05-08T05:20:00.311Z,11.57
2023-05-08T05:22:26.847Z,11.60
2023-05-08T05:24:53.451Z,11.66
2023-05-08T05:27:21.352Z,11.74
2023-05-08T05:29:48.437Z,11.77
2023-05-08T05:32:15.341Z,11.87
2023-05-08T05:34:42.784Z,11.91
2023-05-08T05:37:09.688Z,11.98
2023-05-08T05:39:36.230Z,12.05
2023-05-08T05:42:02.812Z,12.12
2023-05-08T05:44:29.660Z,12.18
2023-05-08T05:46:56.320Z,12.23
2023-05-08T05:49:23.511Z,12.33
2023-05-08T05:51:50.240Z,12.37
2023-05-08T05:54:17.382Z,12.42
2023-05-08T05:56:44.562Z,12.51
2023-05-08T05:59:11.107Z,12.55
2023-05-08T06:01:38.163Z,12.60
2023-05-08T06:04:05.434Z,12.66
2023-05-08T06:06:33.048Z,12.72
2023-05-08T06:08:59.644Z,12.80
2023-05-08T06:11:26.255Z,12.87
2023-05-08T06:13:53.251Z,12.92
2023-05-08T06:16:20.216Z,13.00
2023-05-08T06:18:46.769Z,13.05
2023-05-08T06:21:13.259Z,13.12
2023-05-08T06:23:39.756Z,13.20
2023-05-08T06:26:06.248Z,13.26
2023-05-08T06:28:33.098Z,13.35
2023-05-08T06:30:59.576Z,13.40
2023-05-08T06:33:27.128Z,13.47
2023-05-08T06:35:53.771Z,13.50
2023-05-08T06:38:20.375Z,13.54
2023-05-08T06:40:47.356Z,13.60
2023-05-08T06:43:13.951Z,13.65
2023-05-08T06:45:40.594Z,13.70
2023-05-08T06:48:07.725Z,13.75
2023-05-08T06:50:37.291Z,13.75
2023-05-08T06:53:03.818Z,13.89
2023-05-08T06:55:30.639Z,13.94
2023-05-08T06:57:57.512Z,14.08
2023-05-08T07:00:24.375Z,14.14
2023-05-08T07:02:52.221Z,14.22
2023-05-08T07:05:18.847Z,14.32
2023-05-08T07:07:45.733Z,14.42
2023-05-08T07:10:12.297Z,14.49
2023-05-08T07:12:38.865Z,14.57
2023-05-08T07:15:17.765Z,14.71
2023-05-08T07:17:51.799Z,14.85
2023-05-08T07:20:18.356Z,14.99
2023-05-08T07:22:44.855Z,15.16
2023-05-08T07:25:11.641Z,15.28
2023-05-08T07:27:38.446Z,15.46
2023-05-08T07:30:05.490Z,15.56
2023-05-08T07:32:32.024Z,15.74
2023-05-08T07:34:58.546Z,15.90
2023-05-08T07:37:25.152Z,16.06
2023-05-08T07:39:52.711Z,16.20
2023-05-08T07:42:19.268Z,16.35
2023-05-08T07:44:53.763Z,16.50
2023-05-08T07:47:21.216Z,16.64
2023-05-08T07:49:47.812Z,16.68
2023-05-08T07:52:14.357Z,16.76
2023-05-08T07:54:40.841Z,16.84
2023-05-08T07:57:07.350Z,16.88
2023-05-08T07:59:33.828Z,16.96
2023-05-08T08:02:00.602Z,16.95
2023-05-08T08:04:27.180Z,16.96
2023-05-08T08:06:53.827Z,16.96
2023-05-08T08:09:20.349Z,16.86
2023-05-08T08:11:46.966Z,16.83
2023-05-08T08:14:23.580Z,16.80
2023-05-08T08:16:50.253Z,16.79
2023-05-08T08:19:16.776Z,16.75
2023-05-08T08:21:43.946Z,16.74
2023-05-08T08:24:10.722Z,16.70
2023-05-08T08:26:37.329Z,16.73
2023-05-08T08:29:03.881Z,16.74
2023-05-08T08:31:30.449Z,16.73
2023-05-08T08:33:57.088Z,16.82
2023-05-08T08:36:23.647Z,16.86
2023-05-08T08:38:50.323Z,16.88
2023-05-08T08:41:16.953Z,16.94
2023-05-08T08:43:43.739Z,16.97
2023-05-08T08:46:12.059Z,17.05
2023-05-08T08:48:44.376Z,17.09
2023-05-08T08:51:35.944Z,17.15
2023-05-08T08:54:08.928Z,17.22
2023-05-08T08:56:38.936Z,17.27
2023-05-08T08:59:06.394Z,17.35
2023-05-08T09:01:40.690Z,17.42
2023-05-08T09:04:07.372Z,17.50
2023-05-08T09:06:38.198Z,17.49
2023-05-08T09:09:05.267Z,17.55
2023-05-08T09:11:31.775Z,17.62
2023-05-08T09:13:58.760Z,17.65
2023-05-08T09:16:34.774Z,17.62
2023-05-08T09:19:03.829Z,17.63
2023-05-08T09:21:32.458Z,17.69
2023-05-08T09:24:00.626Z,17.70
2023-05-08T09:26:33.235Z,17.74
2023-05-08T09:29:16.432Z,17.78
2023-05-08T09:31:45.673Z,17.75
2023-05-08T09:34:24.373Z,17.81
2023-05-08T09:36:50.982Z,17.82
2023-05-08T09:39:23.060Z,17.91
2023-05-08T09:42:04.049Z,18.00
2023-05-08T09:44:47.011Z,18.04
2023-05-08T09:47:18.598Z,18.03
2023-05-08T09:50:09.364Z,17.98
2023-05-08T09:52:37.720Z,17.95
2023-05-08T09:55:09.405Z,17.97
2023-05-08T09:57:38.362Z,18.02
2023-05-08T10:00:13.061Z,18.00
2023-05-08T10:02:42.247Z,18.01
2023-05-08T10:05:28.931Z,18.00
2023-05-08T10:07:55.826Z,17.99
2023-05-08T10:10:24.357Z,18.04
2023-05-08T10:12:51.128Z,18.06
2023-05-08T10:15:17.760Z,18.09
2023-05-08T10:17:54.330Z,18.11
2023-05-08T10:20:21.610Z,18.17
2023-05-08T10:22:49.084Z,18.17
2023-05-08T10:25:22.207Z,18.21
2023-05-08T10:28:08.080Z,18.20
2023-05-08T10:30:38.912Z,18.16
2023-05-08T10:33:09.753Z,18.11
2023-05-08T10:35:40.154Z,18.12
2023-05-08T10:38:08.991Z,18.13
2023-05-08T10:40:35.749Z,18.17
2023-05-08T10:43:03.296Z,18.27
2023-05-08T10:45:30.164Z,18.19
2023-05-08T10:48:11.085Z,18.27
2023-05-08T10:51:05.672Z,18.27
2023-05-08T10:53:48.131Z,18.34
2023-05-08T10:56:14.638Z,18.39
2023-05-08T10:58:41.080Z,18.41
2023-05-08T11:01:08.008Z,18.39
2023-05-08T11:03:40.682Z,18.37
2023-05-08T11:06:07.498Z,18.30
2023-05-08T11:08:43.951Z,18.33
2023-05-08T11:11:24.909Z,18.28
2023-05-08T11:13:56.199Z,18.32
2023-05-08T11:16:41.609Z,18.38
2023-05-08T11:19:19.020Z,18.35
2023-05-08T11:22:19.604Z,18.37
2023-05-08T11:24:52.045Z,18.40
2023-05-08T11:27:18.729Z,18.46
2023-05-08T11:29:45.279Z,18.62
2023-05-08T11:32:12.054Z,18.73
2023-05-08T11:34:41.988Z,18.86
2023-05-08T11:37:19.158Z,18.92
2023-05-08T11:39:48.132Z,18.95
2023-05-08T11:42:26.525Z,18.90
2023-05-08T11:45:19.675Z,18.98
2023-05-08T11:47:46.220Z,19.00
2023-05-08T11:50:14.480Z,19.10
2023-05-08T11:52:42.070Z,19.17
2023-05-08T11:55:10.601Z,19.23
2023-05-08T11:57:37.437Z,19.27
2023-05-08T12:00:08.538Z,19.17
2023-05-08T12:02:39.769Z,19.14
2023-05-08T12:05:07.995Z,18.95
2023-05-08T12:07:47.063Z,18.76
2023-05-08T12:10:17.730Z,18.59
2023-05-08T12:12:45.272Z,18.48
2023-05-08T12:15:15.082Z,18.40
2023-05-08T12:17:42.419Z,18.32
2023-05-08T12:20:16.511Z,18.18
2023-05-08T12:22:52.994Z,17.99
2023-05-08T12:25:20.317Z,17.91
2023-05-08T12:27:47.335Z,17.75
2023-05-08T12:30:15.211Z,17.60
2023-05-08T12:32:43.581Z,17.51
2023-05-08T12:35:12.148Z,17.49
2023-05-08T12:37:39.044Z,17.50
2023-05-08T12:40:07.097Z,17.53
2023-05-08T12:42:43.762Z,17.45
2023-05-08T12:45:40.265Z,17.42
2023-05-08T12:48:07.755Z,17.45
2023-05-08T12:50:36.496Z,17.45
2023-05-08T12:53:11.376Z,17.51
2023-05-08T12:55:39.944Z,17.53
2023-05-08T12:58:10.563Z,17.56
2023-05-08T13:00:48.771Z,17.59
2023-05-08T13:03:22.854Z,17.76
2023-05-08T13:05:49.570Z,17.90
2023-05-08T13:08:16.074Z,18.06
2023-05-08T13:10:51.878Z,18.21
2023-05-08T13:13:26.148Z,18.31
2023-05-08T13:15:54.576Z,18.34
2023-05-08T13:18:24.700Z,18.28
2023-05-08T13:20:51.258Z,18.14
2023-05-08T13:23:17.712Z,18.08
2023-05-08T13:25:44.192Z,17.96
2023-05-08T13:28:10.721Z,17.91
2023-05-08T13:30:38.013Z,17.83
2023-05-08T13:33:05.052Z,17.78
2023-05-08T13:35:32.239Z,17.60
2023-05-08T13:37:59.211Z,17.47
2023-05-08T13:40:26.570Z,17.37
2023-05-08T13:42:53.673Z,17.36
2023-05-08T13:45:20.392Z,17.28
2023-05-08T13:47:48.035Z,17.27
2023-05-08T13:50:16.084Z,17.30
2023-05-08T13:52:42.848Z,17.28
2023-05-08T13:55:12.104Z,17.28
2023-05-08T13:57:39.485Z,17.35
2023-05-08T14:00:07.500Z,17.38
2023-05-08T14:02:34.400Z,17.40
2023-05-08T14:05:01.052Z,17.54
2023-05-08T14:07:27.641Z,17.58
2023-05-08T14:09:54.172Z,17.54
2023-05-08T14:12:20.656Z,17.54
2023-05-08T14:14:47.131Z,17.51
2023-05-08T14:17:13.586Z,17.44
2023-05-08T14:19:40.147Z,17.38
2023-05-08T14:22:06.646Z,17.38
2023-05-08T14:24:33.877Z,17.34
2023-05-08T14:27:00.376Z,17.36
2023-05-08T14:29:26.879Z,17.31
2023-05-08T14:31:53.370Z,17.38
2023-05-08T14:34:19.872Z,17.40
2023-05-08T14:36:46.376Z,17.44
2023-05-08T14:39:12.832Z,17.46
2023-05-08T14:41:39.344Z,17.50
2023-05-08T14:44:05.858Z,17.58
2023-05-08T14:46:32.436Z,17.63
2023-05-08T14:48:59.364Z,17.70
2023-05-08T14:51:25.854Z,17.75
2023-05-08T14:53:52.386Z,18.01
2023-05-08T14:56:19.178Z,18.50
2023-05-08T14:58:45.752Z,18.76
2023-05-08T15:01:12.283Z,18.95
2023-05-08T15:03:39.010Z,19.16
2023-05-08T15:06:06.093Z,19.37
2023-05-08T15:08:32.613Z,19.56
2023-05-08T15:10:59.394Z,19.65
2023-05-08T15:13:26.021Z,19.71
2023-05-08T15:15:52.698Z,19.80
2023-05-08T15:18:19.256Z,19.90
2023-05-08T15:20:45.764Z,19.86
2023-05-08T15:23:12.282Z,19.80
2023-05-08T15:25:38.775Z,19.75
2023-05-08T15:28:05.278Z,19.66
2023-05-08T15:30:31.768Z,19.60
2023-05-08T15:32:58.314Z,19.50
2023-05-08T15:35:24.888Z,19.32
2023-05-08T15:37:51.399Z,19.24
2023-05-08T15:40:17.912Z,19.26
2023-05-08T15:42:44.378Z,19.27
2023-05-08T15:45:10.836Z,19.29
2023-05-08T15:47:37.419Z,19.34
2023-05-08T15:50:04.159Z,19.36
2023-05-08T15:52:30.648Z,19.28
2023-05-08T15:54:57.285Z,19.23
2023-05-08T15:57:23.792Z,19.18
2023-05-08T15:59:50.270Z,19.20
2023-05-08T16:02:16.878Z,19.08
2023-05-08T16:04:43.463Z,19.07
2023-05-08T16:07:09.973Z,19.04
2023-05-08T16:09:36.470Z,18.92
2023-05-08T16:12:02.961Z,19.00
2023-05-08T16:14:29.476Z,19.03
2023-05-08T16:16:55.989Z,19.09
2023-05-08T16:19:22.483Z,19.04
2023-05-08T16:21:49.072Z,18.98
2023-05-08T16:24:15.592Z,19.01
2023-05-08T16:26:42.115Z,19.02
2023-05-08T16:29:08.558Z,18.98
2023-05-08T16:31:35.143Z,18.98
2023-05-08T16:34:01.698Z,19.00
2023-05-08T16:36:28.408Z,19.07
2023-05-08T16:38:54.923Z,19.01
2023-05-08T16:41:21.539Z,18.90
2023-05-08T16:43:48.071Z,18.74
2023-05-08T16:46:14.670Z,18.54
2023-05-08T16:48:41.174Z,18.47
2023-05-08T16:51:07.788Z,18.37
2023-05-08T16:53:34.247Z,18.31
2023-05-08T16:56:00.898Z,18.23
2023-05-08T16:58:27.430Z,18.21
2023-05-08T17:00:54.013Z,18.13
2023-05-08T17:03:20.593Z,18.09
2023-05-08T17:05:47.182Z,17.99
2023-05-08T17:08:13.662Z,17.93
2023-05-08T17:10:40.237Z,17.89
2023-05-08T17:13:07.011Z,17.84
2023-05-08T17:15:33.563Z,17.79
2023-05-08T17:18:00.120Z,17.87
2023-05-08T17:20:26.639Z,17.82
2023-05-08T17:22:54.095Z,17.82
2023-05-08T17:25:20.716Z,17.73
2023-05-08T17:27:47.240Z,17.70
2023-05-08T17:30:15.242Z,17.67
2023-05-08T17:32:42.085Z,17.57
2023-05-08T17:35:09.020Z,17.51
2023-05-08T17:37:35.775Z,17.47
2023-05-08T17:40:02.600Z,17.48
2023-05-08T17:42:29.093Z,17.43
2023-05-08T17:44:55.621Z,17.39
2023-05-08T17:47:22.224Z,17.36
2023-05-08T17:49:48.835Z,17.33
2023-05-08T17:52:15.530Z,17.23
2023-05-08T17:54:42.205Z,17.18
2023-05-08T17:57:08.970Z,17.13
2023-05-08T17:59:35.486Z,17.02
2023-05-08T18:02:02.178Z,16.97
2023-05-08T18:04:28.796Z,16.89
2023-05-08T18:06:55.289Z,16.81
2023-05-08T18:09:21.954Z,16.72
2023-05-08T18:11:49.693Z,16.68
2023-05-08T18:14:16.178Z,16.57
2023-05-08T18:16:43.023Z,16.50
2023-05-08T18:19:09.515Z,16.39
2023-05-08T18:21:35.969Z,16.32
2023-05-08T18:24:02.478Z,16.26
2023-05-08T18:26:28.928Z,16.24
2023-05-08T18:28:55.431Z,16.16
2023-05-08T18:31:21.985Z,16.22
2023-05-08T18:33:48.438Z,16.17
2023-05-08T18:36:15.007Z,16.10
2023-05-08T18:38:42.822Z,16.05
2023-05-08T18:41:09.694Z,16.00
2023-05-08T18:43:36.191Z,15.93
2023-05-08T18:46:10.613Z,15.90
2023-05-08T18:48:37.169Z,15.81
2023-05-08T18:51:03.837Z,15.80
2023-05-08T18:53:30.500Z,15.82
2023-05-08T18:55:56.988Z,15.79
2023-05-08T18:58:23.554Z,15.75
2023-05-08T19:00:50.094Z,15.69
2023-05-08T19:03:16.745Z,15.61
2023-05-08T19:05:43.558Z,15.54
2023-05-08T19:08:10.128Z,15.48
2023-05-08T19:10:36.693Z,15.45
2023-05-08T19:13:05.926Z,15.38
2023-05-08T19:15:32.737Z,15.38
2023-05-08T19:17:59.260Z,15.32
2023-05-08T19:20:25.702Z,15.29
2023-05-08T19:22:52.238Z,15.27
2023-05-08T19:25:18.708Z,15.23
2023-05-08T19:27:45.645Z,15.21
2023-05-08T19:30:12.859Z,15.14
2023-05-08T19:32:39.552Z,15.15
2023-05-08T19:35:06.572Z,15.15
2023-05-08T19:37:33.059Z,15.15
2023-05-08T19:39:59.794Z,15.10
2023-05-08T19:42:26.367Z,15.09
2023-05-08T19:44:52.906Z,15.07
2023-05-08T19:47:19.436Z,15.07
2023-05-08T19:49:45.970Z,15.00
2023-05-08T19:52:13.034Z,15.01
2023-05-08T19:54:39.727Z,14.98
2023-05-08T19:57:06.171Z,14.94
2023-05-08T19:59:32.967Z,14.92
2023-05-08T20:01:59.456Z,14.92
2023-05-08T20:04:26.003Z,14.88
2023-05-08T20:06:52.507Z,14.86
2023-05-08T20:09:19.057Z,14.88
2023-05-08T20:11:45.520Z,14.81
2023-05-08T20:14:12.020Z,14.84
2023-05-08T20:16:38.529Z,14.82
2023-05-08T20:19:05.185Z,14.79
2023-05-08T20:21:31.700Z,14.77
2023-05-08T20:23:58.797Z,14.76
2023-05-08T20:26:27.287Z,14.75
2023-05-08T20:28:53.900Z,14.74
2023-05-08T20:31:20.533Z,14.75
2023-05-08T20:33:47.124Z,14.72
2023-05-08T20:36:13.742Z,14.73
2023-05-08T20:38:40.320Z,14.74
2023-05-08T20:41:07.085Z,14.71
2023-05-08T20:43:33.628Z,14.75
2023-05-08T20:46:00.266Z,14.75
2023-05-08T20:48:26.844Z,14.76
2023-05-08T20:50:53.319Z,14.76
2023-05-08T20:53:19.801Z,14.75
2023-05-08T20:55:46.287Z,14.72
2023-05-08T20:58:13.397Z,14.74
2023-05-08T21:00:40.089Z,14.72
2023-05-08T21:03:06.616Z,14.72
2023-05-08T21:05:33.196Z,14.75
2023-05-08T21:07:59.842Z,14.75
2023-05-08T21:10:26.866Z,14.75
2023-05-08T21:12:53.441Z,14.71
2023-05-08T21:15:20.121Z,14.71
2023-05-08T21:17:46.772Z,14.70
2023-05-08T21:20:13.605Z,14.68
2023-05-08T21:22:41.323Z,14.71
2023-05-08T21:25:15.141Z,14.66
2023-05-08T21:27:44.943Z,14.63
2023-05-08T21:30:12.094Z,14.62
2023-05-08T21:32:38.865Z,14.59
2023-05-08T21:35:06.012Z,14.55
2023-05-08T21:37:32.880Z,14.54
2023-05-08T21:39:59.357Z,14.51
2023-05-08T21:42:25.979Z,14.50
2023-05-08T21:44:55.543Z,14.45
2023-05-08T21:47:22.652Z,14.42
2023-05-08T21:49:49.508Z,14.43
2023-05-08T21:52:16.012Z,14.38
2023-05-08T21:54:42.739Z,14.40
2023-05-08T21:57:09.219Z,14.37
2023-05-08T21:59:35.670Z,14.25
2023-05-08T22:02:02.357Z,14.22
2023-05-08T22:04:29.034Z,14.15
2023-05-08T22:06:55.485Z,14.14
2023-05-08T22:09:21.963Z,14.14
2023-05-08T22:11:48.492Z,14.07
2023-05-08T22:14:14.957Z,14.05
2023-05-08T22:16:41.767Z,14.09
2023-05-08T22:19:09.004Z,14.04
2023-05-08T22:21:35.844Z,14.04
2023-05-08T22:24:02.306Z,13.96
2023-05-08T22:26:28.926Z,13.99
2023-05-08T22:28:56.603Z,13.98
2023-05-08T22:31:23.170Z,13.94
2023-05-08T22:33:50.756Z,13.92
2023-05-08T22:36:17.546Z,13.87
2023-05-08T22:38:44.793Z,13.89
2023-05-08T22:41:11.326Z,13.93
2023-05-08T22:43:37.907Z,13.83
2023-05-08T22:46:05.738Z,13.90
2023-05-08T22:48:32.392Z,13.82
2023-05-08T22:50:59.146Z,13.76
2023-05-08T22:53:25.677Z,13.87
2023-05-08T22:55:52.192Z,13.82
2023-05-08T22:58:18.698Z,13.80
2023-05-08T23:00:45.205Z,13.78
2023-05-08T23:03:12.578Z,13.82
2023-05-08T23:05:39.096Z,13.79
2023-05-08T23:08:05.864Z,13.79
2023-05-08T23:10:32.420Z,13.78
2023-05-08T23:12:58.961Z,13.80
2023-05-08T23:15:25.763Z,13.74
2023-05-08T23:17:52.296Z,13.81
2023-05-08T23:20:18.952Z,13.80
2023-05-08T23:22:45.829Z,13.74
2023-05-08T23:25:12.756Z,13.80
2023-05-08T23:27:39.486Z,13.78
2023-05-08T23:30:06.717Z,13.78
2023-05-08T23:32:33.553Z,13.75
2023-05-08T23:35:00.165Z,13.78
2023-05-08T23:37:26.692Z,13.75
2023-05-08T23:39:53.240Z,13.76
2023-05-08T23:42:19.752Z,13.80
2023-05-08T23:44:46.578Z,13.78
2023-05-08T23:47:13.111Z,13.78
2023-05-08T23:49:39.693Z,13.78
2023-05-08T23:52:06.459Z,13.78
2023-05-08T23:54:32.970Z,13.75
2023-05-08T23:56:59.485Z,13.79
2023-05-08T23:59:26.043Z,13.73
